createdAt,value
2024-02-24T00:02:21.280Z,12.25
2024-02-24T00:04:48.731Z,12.31
2024-02-24T00:16:09.068Z,12.58
2024-02-24T00:18:36.589Z,12.37
2024-02-24T00:21:03.856Z,12.54
2024-02-24T00:23:31.110Z,12.28
2024-02-24T00:25:58.657Z,12.39
2024-02-24T00:28:25.865Z,12.13
2024-02-24T00:30:53.015Z,12.44
2024-02-24T00:33:20.506Z,12.62
2024-02-24T00:35:47.772Z,12.64
2024-02-24T00:38:15.068Z,12.43
2024-02-24T00:40:42.581Z,12.28
2024-02-24T00:43:09.788Z,12.48
2024-02-24T00:45:36.970Z,12.38
2024-02-24T00:48:04.697Z,12.60
2024-02-24T00:50:32.778Z,12.74
2024-02-24T00:53:00.280Z,12.79
2024-02-24T00:55:28.022Z,12.34
2024-02-24T00:57:56.637Z,12.69
2024-02-24T01:00:23.944Z,12.69
2024-02-24T01:02:51.524Z,12.54
2024-02-24T01:05:20.338Z,12.53
2024-02-24T01:07:47.692Z,12.27
2024-02-24T01:10:15.166Z,12.55
2024-02-24T01:12:42.551Z,12.76
2024-02-24T01:15:09.955Z,12.38
2024-02-24T01:17:37.551Z,12.28
2024-02-24T01:20:04.895Z,12.33
2024-02-24T01:22:32.228Z,12.39
2024-02-24T01:24:59.764Z,12.32
2024-02-24T01:27:26.932Z,11.90
2024-02-24T01:29:54.197Z,12.50
2024-02-24T01:32:21.692Z,12.90
2024-02-24T01:34:48.944Z,12.59
2024-02-24T01:37:16.107Z,12.36
2024-02-24T01:39:43.671Z,12.20
2024-02-24T01:42:10.889Z,12.25
2024-02-24T01:44:38.278Z,12.55
2024-02-24T01:47:06.031Z,12.64
2024-02-24T01:49:33.311Z,12.55
2024-02-24T01:52:01.113Z,12.48
2024-02-24T01:54:28.873Z,12.61
2024-02-24T01:56:56.080Z,12.71
2024-02-24T01:59:24.451Z,11.75
2024-02-24T02:01:51.627Z,12.37
2024-02-24T02:04:19.177Z,12.35
2024-02-24T02:06:46.568Z,12.45
2024-02-24T02:09:13.834Z,12.97
2024-02-24T02:11:48.194Z,12.82
2024-02-24T02:14:23.724Z,12.59
2024-02-24T02:16:51.201Z,12.70
2024-02-24T02:19:18.489Z,12.68
2024-02-24T02:21:45.683Z,12.53
2024-02-24T02:24:13.144Z,12.64
2024-02-24T02:26:40.462Z,12.88
2024-02-24T02:29:07.869Z,12.59
2024-02-24T02:31:36.351Z,12.57
2024-02-24T02:34:03.622Z,12.79
2024-02-24T02:36:30.794Z,12.74
2024-02-24T02:38:58.289Z,12.78
2024-02-24T02:41:25.526Z,12.74
2024-02-24T02:43:52.741Z,12.63
2024-02-24T02:46:20.203Z,12.57
2024-02-24T02:48:47.479Z,12.51
2024-02-24T02:51:15.071Z,12.40
2024-02-24T02:53:42.651Z,12.82
2024-02-24T02:56:14.591Z,12.55
2024-02-24T02:58:41.800Z,12.59
2024-02-24T03:01:12.460Z,12.51
2024-02-24T03:03:39.743Z,12.51
2024-02-24T03:06:08.811Z,12.46
2024-02-24T03:08:36.293Z,12.29
2024-02-24T03:11:03.596Z,12.40
2024-02-24T03:13:30.867Z,12.36
2024-02-24T03:15:58.332Z,12.07
2024-02-24T03:18:25.601Z,12.24
2024-02-24T03:20:52.878Z,12.33
2024-02-24T03:23:20.363Z,12.22
2024-02-24T03:25:47.558Z,12.43
2024-02-24T03:28:15.918Z,12.53
2024-02-24T03:30:44.349Z,12.30
2024-02-24T03:33:13.753Z,12.21
2024-02-24T03:35:41.187Z,12.16
2024-02-24T03:38:08.680Z,12.34
2024-02-24T03:40:35.892Z,12.20
2024-02-24T03:43:03.143Z,12.12
2024-02-24T03:45:34.828Z,12.02
2024-02-24T03:48:02.095Z,11.86
2024-02-24T03:50:29.400Z,12.07
2024-02-24T03:52:57.011Z,12.16
2024-02-24T03:55:24.162Z,12.25
2024-02-24T03:57:51.527Z,12.05
2024-02-24T04:00:19.071Z,12.14
2024-02-24T04:02:46.536Z,12.14
2024-02-24T04:05:13.867Z,12.09
2024-02-24T04:07:41.100Z,12.33
2024-02-24T04:10:08.648Z,12.26
2024-02-24T04:12:35.841Z,12.17
2024-02-24T04:15:03.137Z,12.31
2024-02-24T04:17:31.554Z,11.87
2024-02-24T04:19:58.797Z,12.11
2024-02-24T04:22:25.966Z,12.02
2024-02-24T04:24:53.459Z,12.17
2024-02-24T04:27:20.713Z,12.03
2024-02-24T04:29:48.012Z,12.21
2024-02-24T04:32:15.615Z,11.74
2024-02-24T04:34:42.925Z,11.69
2024-02-24T04:37:10.164Z,11.86
2024-02-24T04:39:37.629Z,11.95
2024-02-24T04:42:04.821Z,11.68
2024-02-24T04:44:32.016Z,11.85
2024-02-24T04:46:59.542Z,11.91
2024-02-24T04:49:26.760Z,11.81
2024-02-24T04:51:54.050Z,11.97
2024-02-24T04:54:22.565Z,11.91
2024-02-24T04:56:49.772Z,12.00
2024-02-24T04:59:18.222Z,11.97
2024-02-24T05:01:45.676Z,11.96
2024-02-24T05:04:12.894Z,11.56
2024-02-24T05:06:40.114Z,11.72
2024-02-24T05:09:09.862Z,11.65
2024-02-24T05:11:37.204Z,11.81
2024-02-24T05:14:04.614Z,11.99
2024-02-24T05:16:34.220Z,12.07
2024-02-24T05:19:01.507Z,11.84
2024-02-24T05:21:28.719Z,11.78
2024-02-24T05:23:56.330Z,11.47
2024-02-24T05:26:26.760Z,11.45
2024-02-24T05:28:53.965Z,11.75
2024-02-24T05:31:21.507Z,11.43
2024-02-24T05:33:51.537Z,11.76
2024-02-24T05:36:19.409Z,11.84
2024-02-24T05:38:46.904Z,11.72
2024-02-24T05:41:14.744Z,11.64
2024-02-24T05:43:41.978Z,11.62
2024-02-24T05:46:09.424Z,11.50
2024-02-24T05:48:37.040Z,11.55
2024-02-24T05:51:05.297Z,11.49
2024-02-24T05:53:33.277Z,11.59
2024-02-24T05:56:00.546Z,11.17
2024-02-24T05:58:30.170Z,11.07
2024-02-24T06:00:58.901Z,11.33
2024-02-24T06:03:28.620Z,11.44
2024-02-24T06:05:55.845Z,11.51
2024-02-24T06:08:23.190Z,11.35
2024-02-24T06:10:50.756Z,11.48
2024-02-24T06:13:17.988Z,11.61
2024-02-24T06:15:45.145Z,11.61
2024-02-24T06:18:12.795Z,11.68
2024-02-24T06:20:40.086Z,11.82
2024-02-24T06:23:07.584Z,11.66
2024-02-24T06:25:35.128Z,11.68
2024-02-24T06:28:02.635Z,11.64
2024-02-24T06:30:29.814Z,11.24
2024-02-24T06:32:57.301Z,11.50
2024-02-24T06:35:24.577Z,11.48
2024-02-24T06:37:51.929Z,11.30
2024-02-24T06:40:29.100Z,11.22
2024-02-24T06:43:00.641Z,11.37
2024-02-24T06:45:28.141Z,11.35
2024-02-24T06:47:55.402Z,11.52
2024-02-24T06:50:22.730Z,11.69
2024-02-24T06:52:50.219Z,11.72
2024-02-24T06:55:17.402Z,11.55
2024-02-24T06:57:45.408Z,11.61
2024-02-24T07:00:15.889Z,11.72
2024-02-24T07:02:43.131Z,11.79
2024-02-24T07:05:10.439Z,11.51
2024-02-24T07:07:38.433Z,11.57
2024-02-24T07:10:06.082Z,11.48
2024-02-24T07:12:33.374Z,11.67
2024-02-24T07:15:00.888Z,11.73
2024-02-24T07:17:28.475Z,11.79
2024-02-24T07:19:55.794Z,11.90
2024-02-24T07:22:23.364Z,11.65
2024-02-24T07:24:50.622Z,11.76
2024-02-24T07:27:17.842Z,11.52
2024-02-24T07:29:45.407Z,11.74
2024-02-24T07:32:12.714Z,11.66
2024-02-24T07:34:40.084Z,11.72
2024-02-24T07:37:07.592Z,11.84
2024-02-24T07:39:37.029Z,11.73
2024-02-24T07:42:04.315Z,11.74
2024-02-24T07:44:32.437Z,11.91
2024-02-24T07:46:59.704Z,11.99
2024-02-24T07:49:26.964Z,11.79
2024-02-24T07:51:54.809Z,12.14
2024-02-24T07:54:21.960Z,12.10
2024-02-24T07:56:49.205Z,12.13
2024-02-24T07:59:16.731Z,12.07
2024-02-24T08:01:43.927Z,11.97
2024-02-24T08:04:11.412Z,12.08
2024-02-24T08:06:38.695Z,12.06
2024-02-24T08:09:05.992Z,12.20
2024-02-24T08:11:41.479Z,12.40
2024-02-24T08:14:10.302Z,12.61
2024-02-24T08:16:39.659Z,12.57
2024-02-24T08:19:08.113Z,12.73
2024-02-24T08:21:38.532Z,12.66
2024-02-24T08:24:09.216Z,12.63
2024-02-24T08:26:43.434Z,12.84
2024-02-24T08:29:11.615Z,12.78
2024-02-24T08:31:39.564Z,12.80
2024-02-24T08:34:06.969Z,12.76
2024-02-24T08:36:34.713Z,13.01
2024-02-24T08:39:02.199Z,12.90
2024-02-24T08:41:33.083Z,13.10
2024-02-24T08:44:02.145Z,13.24
2024-02-24T08:46:29.861Z,13.13
2024-02-24T08:49:02.110Z,13.39
2024-02-24T08:51:29.772Z,13.50
2024-02-24T08:53:57.064Z,13.56
2024-02-24T08:56:24.576Z,13.59
2024-02-24T08:58:52.035Z,13.73
2024-02-24T09:01:22.294Z,14.13
2024-02-24T09:03:49.617Z,13.85
2024-02-24T09:06:17.395Z,13.93
2024-02-24T09:08:44.801Z,14.16
2024-02-24T09:11:12.736Z,13.87
2024-02-24T09:13:40.331Z,13.50
2024-02-24T09:16:07.836Z,14.18
2024-02-24T09:18:35.205Z,13.82
2024-02-24T09:21:02.806Z,14.10
2024-02-24T09:23:29.971Z,13.83
2024-02-24T09:25:57.380Z,13.94
2024-02-24T09:28:24.802Z,14.03
2024-02-24T09:30:52.739Z,14.30
2024-02-24T09:33:20.146Z,13.80
2024-02-24T09:35:47.857Z,14.26
2024-02-24T09:38:15.121Z,14.27
2024-02-24T09:40:42.329Z,14.15
2024-02-24T09:43:09.809Z,14.31
2024-02-24T09:45:42.592Z,14.33
2024-02-24T09:48:11.857Z,14.25
2024-02-24T09:50:39.726Z,14.30
2024-02-24T09:53:07.096Z,14.61
2024-02-24T09:55:35.849Z,14.69
2024-02-24T09:58:04.458Z,14.51
2024-02-24T10:00:31.616Z,14.70
2024-02-24T10:02:59.256Z,14.63
2024-02-24T10:05:27.130Z,14.44
2024-02-24T10:07:56.699Z,14.33
2024-02-24T10:10:27.493Z,14.28
2024-02-24T10:12:58.367Z,14.51
2024-02-24T10:15:26.331Z,14.50
2024-02-24T10:18:00.123Z,14.83
2024-02-24T10:20:28.550Z,14.54
2024-02-24T10:22:55.946Z,15.00
2024-02-24T10:25:23.344Z,15.16
2024-02-24T10:27:50.778Z,15.03
2024-02-24T10:30:20.962Z,15.29
2024-02-24T10:32:52.114Z,14.68
2024-02-24T10:35:19.403Z,14.94
2024-02-24T10:38:03.317Z,14.74
2024-02-24T10:40:34.196Z,14.96
2024-02-24T10:43:01.573Z,14.74
2024-02-24T10:45:29.702Z,15.18
2024-02-24T10:47:57.529Z,14.97
2024-02-24T10:50:24.791Z,15.08
2024-02-24T10:52:52.038Z,15.14
2024-02-24T10:55:20.046Z,14.99
2024-02-24T10:57:49.679Z,15.43
2024-02-24T11:00:24.526Z,15.23
2024-02-24T11:02:52.578Z,15.31
2024-02-24T11:05:20.005Z,15.45
2024-02-24T11:07:47.284Z,15.45
2024-02-24T11:10:23.954Z,15.45
2024-02-24T11:12:54.099Z,15.33
2024-02-24T11:15:25.026Z,15.54
2024-02-24T11:17:54.036Z,15.33
2024-02-24T11:20:40.974Z,15.62
2024-02-24T11:23:24.894Z,15.46
2024-02-24T11:26:11.184Z,15.37
2024-02-24T11:28:38.503Z,15.21
2024-02-24T11:31:06.067Z,15.28
2024-02-24T11:33:38.680Z,15.22
2024-02-24T11:36:06.870Z,15.17
2024-02-24T11:38:34.515Z,15.06
2024-02-24T11:41:05.161Z,15.06
2024-02-24T11:43:32.834Z,15.13
2024-02-24T11:46:00.195Z,15.16
2024-02-24T11:48:27.535Z,15.04
2024-02-24T11:50:55.177Z,14.81
2024-02-24T11:53:22.689Z,14.70
2024-02-24T11:55:50.267Z,15.14
2024-02-24T11:58:18.927Z,15.02
2024-02-24T12:00:46.732Z,15.02
2024-02-24T12:03:15.289Z,14.95
2024-02-24T12:05:43.040Z,14.81
2024-02-24T12:08:11.794Z,15.05
2024-02-24T12:10:39.970Z,14.84
2024-02-24T12:13:08.183Z,15.15
2024-02-24T12:15:35.939Z,15.03
2024-02-24T12:18:07.345Z,15.23
2024-02-24T12:20:38.408Z,15.04
2024-02-24T12:23:06.377Z,15.21
2024-02-24T12:25:33.751Z,15.37
2024-02-24T12:28:01.172Z,15.49
2024-02-24T12:30:28.745Z,15.48
2024-02-24T12:32:56.854Z,15.11
2024-02-24T12:35:24.289Z,15.27
2024-02-24T12:37:55.313Z,15.38
2024-02-24T12:40:27.743Z,15.31
2024-02-24T12:42:55.564Z,15.42
2024-02-24T12:45:22.866Z,15.58
2024-02-24T12:47:53.173Z,15.60
2024-02-24T12:50:21.515Z,15.58
2024-02-24T12:52:48.930Z,15.92
2024-02-24T12:55:16.627Z,16.03
2024-02-24T12:57:44.242Z,15.79
2024-02-24T13:00:11.700Z,15.88
2024-02-24T13:02:39.130Z,15.93
2024-02-24T13:05:06.831Z,15.48
2024-02-24T13:07:34.107Z,15.81
2024-02-24T13:10:01.519Z,15.90
2024-02-24T13:12:29.195Z,15.83
2024-02-24T13:14:56.650Z,15.86
2024-02-24T13:17:24.132Z,16.00
2024-02-24T13:19:52.819Z,15.97
2024-02-24T13:22:20.740Z,15.98
2024-02-24T13:24:49.516Z,16.03
2024-02-24T13:27:17.006Z,15.87
2024-02-24T13:29:44.330Z,15.81
2024-02-24T13:32:11.579Z,15.94
2024-02-24T13:34:39.094Z,15.87
2024-02-24T13:37:08.593Z,16.06
2024-02-24T13:39:35.941Z,16.41
2024-02-24T13:42:03.978Z,16.36
2024-02-24T13:44:31.178Z,16.17
2024-02-24T13:46:58.709Z,16.13
2024-02-24T13:49:26.270Z,16.05
2024-02-24T13:51:53.598Z,16.17
2024-02-24T13:54:20.763Z,16.32
2024-02-24T13:56:48.538Z,16.30
2024-02-24T13:59:15.769Z,16.49
2024-02-24T14:01:42.942Z,16.47
2024-02-24T14:04:10.380Z,16.34
2024-02-24T14:06:37.922Z,16.46
2024-02-24T14:09:07.897Z,16.34
2024-02-24T14:11:35.966Z,16.32
2024-02-24T14:14:03.506Z,16.56
2024-02-24T14:16:31.058Z,16.09
2024-02-24T14:18:58.688Z,16.41
2024-02-24T14:21:26.012Z,16.13
2024-02-24T14:23:53.551Z,16.37
2024-02-24T14:26:21.164Z,16.21
2024-02-24T14:28:59.462Z,16.20
2024-02-24T14:31:29.827Z,16.12
2024-02-24T14:33:58.336Z,16.36
2024-02-24T14:36:25.677Z,16.24
2024-02-24T14:38:53.451Z,16.37
2024-02-24T14:41:20.828Z,16.34
2024-02-24T14:43:48.109Z,16.44
2024-02-24T14:46:15.590Z,16.04
2024-02-24T14:48:44.016Z,16.23
2024-02-24T14:51:11.283Z,16.43
2024-02-24T14:53:39.047Z,16.44
2024-02-24T14:56:06.525Z,16.61
2024-02-24T14:58:33.847Z,16.17
2024-02-24T15:01:01.543Z,16.41
2024-02-24T15:03:28.820Z,16.62
2024-02-24T15:05:56.641Z,16.68
2024-02-24T15:08:24.250Z,16.67
2024-02-24T15:10:51.631Z,16.20
2024-02-24T15:13:23.239Z,16.24
2024-02-24T15:15:55.096Z,16.47
2024-02-24T15:18:22.407Z,16.46
2024-02-24T15:20:49.891Z,16.45
2024-02-24T15:23:17.534Z,16.41
2024-02-24T15:25:47.508Z,16.18
2024-02-24T15:28:15.320Z,16.40
2024-02-24T15:30:43.335Z,16.43
2024-02-24T15:33:11.157Z,16.31
2024-02-24T15:35:39.710Z,16.29
2024-02-24T15:38:07.296Z,16.32
2024-02-24T15:40:37.763Z,16.12
2024-02-24T15:43:07.082Z,16.21
2024-02-24T15:45:34.319Z,16.27
2024-02-24T15:48:02.033Z,16.28
2024-02-24T15:50:29.659Z,16.25
2024-02-24T15:52:56.900Z,16.10
2024-02-24T15:55:24.246Z,16.04
2024-02-24T15:57:52.723Z,16.01
2024-02-24T16:00:20.773Z,15.84
2024-02-24T16:02:48.406Z,15.85
2024-02-24T16:05:18.039Z,15.89
2024-02-24T16:07:45.223Z,15.89
2024-02-24T16:10:12.690Z,15.41
2024-02-24T16:12:39.871Z,15.41
2024-02-24T16:15:07.400Z,15.17
2024-02-24T16:17:35.616Z,14.84
2024-02-24T16:20:03.166Z,15.09
2024-02-24T16:22:30.429Z,14.73
2024-02-24T16:24:57.905Z,14.73
2024-02-24T16:27:25.898Z,14.42
2024-02-24T16:29:53.872Z,14.73
2024-02-24T16:32:22.435Z,14.60
2024-02-24T16:34:50.524Z,14.68
2024-02-24T16:37:18.936Z,14.55
2024-02-24T16:39:46.758Z,14.72
2024-02-24T16:42:13.964Z,14.43
2024-02-24T16:44:42.275Z,14.54
2024-02-24T16:47:09.744Z,14.36
2024-02-24T16:49:37.024Z,14.26
2024-02-24T16:52:04.436Z,14.34
2024-02-24T16:54:31.896Z,14.31
2024-02-24T16:56:59.190Z,14.48
2024-02-24T16:59:26.404Z,14.60
2024-02-24T17:01:53.888Z,14.48
2024-02-24T17:04:21.191Z,14.50
2024-02-24T17:06:48.409Z,14.65
2024-02-24T17:09:16.128Z,14.37
2024-02-24T17:11:43.492Z,14.34
2024-02-24T17:14:10.780Z,14.42
2024-02-24T17:16:38.200Z,14.47
2024-02-24T17:19:05.506Z,14.37
2024-02-24T17:21:32.745Z,14.32
2024-02-24T17:24:00.235Z,14.48
2024-02-24T17:26:27.714Z,14.45
2024-02-24T17:28:54.944Z,14.48
2024-02-24T17:31:22.390Z,14.29
2024-02-24T17:33:49.744Z,14.28
2024-02-24T17:36:17.346Z,14.30
2024-02-24T17:38:45.917Z,14.23
2024-02-24T17:41:13.158Z,14.15
2024-02-24T17:43:40.338Z,14.18
2024-02-24T17:46:07.812Z,14.08
2024-02-24T17:48:36.732Z,14.13
2024-02-24T17:51:04.625Z,14.28
2024-02-24T17:53:32.240Z,13.93
2024-02-24T17:55:59.861Z,13.90
2024-02-24T17:58:36.244Z,13.79
2024-02-24T18:01:11.976Z,13.77
2024-02-24T18:03:39.740Z,13.86
2024-02-24T18:06:07.134Z,13.58
2024-02-24T18:08:34.395Z,13.62
2024-02-24T18:11:01.919Z,13.62
2024-02-24T18:13:29.088Z,13.66
2024-02-24T18:15:56.467Z,13.36
2024-02-24T18:18:24.038Z,13.50
2024-02-24T18:20:51.622Z,13.28
2024-02-24T18:23:18.909Z,13.25
2024-02-24T18:25:47.823Z,13.33
2024-02-24T18:28:15.186Z,13.21
2024-02-24T18:30:42.927Z,13.16
2024-02-24T18:33:11.271Z,13.20
2024-02-24T18:35:38.712Z,13.35
2024-02-24T18:38:05.998Z,13.18
2024-02-24T18:40:33.685Z,13.12
2024-02-24T18:43:01.341Z,13.25
2024-02-24T18:45:28.748Z,13.20
2024-02-24T18:47:57.120Z,13.06
2024-02-24T18:50:25.233Z,13.01
2024-02-24T18:52:53.366Z,13.11
2024-02-24T18:55:21.823Z,13.11
2024-02-24T18:57:49.222Z,13.11
2024-02-24T19:00:17.308Z,12.97
2024-02-24T19:02:45.885Z,13.13
2024-02-24T19:05:13.939Z,13.19
2024-02-24T19:07:44.071Z,13.14
2024-02-24T19:10:12.516Z,13.23
2024-02-24T19:12:40.277Z,13.21
2024-02-24T19:15:09.552Z,13.13
2024-02-24T19:17:38.265Z,13.13
2024-02-24T19:20:07.341Z,13.16
2024-02-24T19:22:35.805Z,13.01
2024-02-24T19:25:04.964Z,13.15
2024-02-24T19:27:33.421Z,13.13
2024-02-24T19:30:02.263Z,13.17
2024-02-24T19:32:31.364Z,13.26
2024-02-24T19:35:00.062Z,13.11
2024-02-24T19:37:28.608Z,12.93
2024-02-24T19:39:57.686Z,12.94
2024-02-24T19:42:27.669Z,13.06
2024-02-24T19:44:57.199Z,13.05
2024-02-24T19:47:25.985Z,13.10
2024-02-24T19:49:54.677Z,13.08
2024-02-24T19:52:24.275Z,13.15
2024-02-24T19:54:52.743Z,12.88
2024-02-24T19:57:22.649Z,12.79
2024-02-24T19:59:50.783Z,12.90
2024-02-24T20:02:19.324Z,12.78
2024-02-24T20:04:47.360Z,12.82
2024-02-24T20:07:15.557Z,12.85
2024-02-24T20:09:43.746Z,12.93
2024-02-24T20:12:13.791Z,12.91
2024-02-24T20:14:41.927Z,13.01
2024-02-24T20:17:11.315Z,12.96
2024-02-24T20:19:42.096Z,13.03
2024-02-24T20:22:10.118Z,13.02
2024-02-24T20:24:38.632Z,13.10
2024-02-24T20:27:06.518Z,12.99
2024-02-24T20:29:34.842Z,12.84
2024-02-24T20:32:02.737Z,12.75
2024-02-24T20:34:30.669Z,12.71
2024-02-24T20:36:58.304Z,12.76
2024-02-24T20:39:25.688Z,12.87
2024-02-24T20:41:54.072Z,12.83
2024-02-24T20:44:22.172Z,12.77
2024-02-24T20:46:50.823Z,12.60
2024-02-24T20:49:22.690Z,12.43
2024-02-24T20:51:58.444Z,12.59
2024-02-24T20:54:29.938Z,12.60
2024-02-24T20:56:57.829Z,12.66
2024-02-24T20:59:25.321Z,12.70
2024-02-24T21:01:52.859Z,12.68
2024-02-24T21:04:20.287Z,12.69
2024-02-24T21:06:47.749Z,12.61
2024-02-24T21:09:15.248Z,12.49
2024-02-24T21:11:42.675Z,12.63
2024-02-24T21:14:12.065Z,12.51
2024-02-24T21:16:39.836Z,12.46
2024-02-24T21:19:08.681Z,12.07
2024-02-24T21:21:36.097Z,12.13
2024-02-24T21:24:03.220Z,12.22
2024-02-24T21:26:30.603Z,12.33
2024-02-24T21:28:58.024Z,12.37
2024-02-24T21:31:25.363Z,12.29
2024-02-24T21:33:52.909Z,12.26
2024-02-24T21:36:20.733Z,12.26
2024-02-24T21:38:48.113Z,12.36
2024-02-24T21:41:18.666Z,12.31
2024-02-24T21:43:46.074Z,12.25
2024-02-24T21:46:13.165Z,12.21
2024-02-24T21:48:40.659Z,12.10
2024-02-24T21:51:10.811Z,12.09
2024-02-24T21:53:37.907Z,11.99
2024-02-24T21:56:05.156Z,11.93
2024-02-24T21:58:32.298Z,12.15
2024-02-24T22:00:59.426Z,12.13
2024-02-24T22:03:27.646Z,12.24
2024-02-24T22:05:54.976Z,12.13
2024-02-24T22:08:22.328Z,12.07
2024-02-24T22:10:49.852Z,12.03
2024-02-24T22:13:17.113Z,11.89
2024-02-24T22:15:44.393Z,11.98
2024-02-24T22:18:11.981Z,11.90
2024-02-24T22:20:39.297Z,11.92
2024-02-24T22:23:06.504Z,11.91
2024-02-24T22:25:33.952Z,11.96
2024-02-24T22:28:01.358Z,11.86
2024-02-24T22:30:28.701Z,11.84
2024-02-24T22:32:57.442Z,11.79
2024-02-24T22:35:24.872Z,11.97
2024-02-24T22:37:52.103Z,12.05
2024-02-24T22:40:19.732Z,12.08
2024-02-24T22:42:46.998Z,12.03
2024-02-24T22:45:14.232Z,11.94
2024-02-24T22:47:44.278Z,12.04
2024-02-24T22:50:13.237Z,11.90
2024-02-24T22:52:40.402Z,11.89
2024-02-24T22:55:09.766Z,11.84
2024-02-24T22:57:37.036Z,11.89
2024-02-24T23:00:05.695Z,11.88
2024-02-24T23:02:33.259Z,11.95
2024-02-24T23:05:00.495Z,12.01
2024-02-24T23:07:27.800Z,11.98
2024-02-24T23:09:56.280Z,11.89
2024-02-24T23:12:23.489Z,11.94
2024-02-24T23:14:50.744Z,11.93
2024-02-24T23:17:18.284Z,11.90
2024-02-24T23:19:45.644Z,11.90
2024-02-24T23:22:12.839Z,11.97
2024-02-24T23:24:40.319Z,11.91
2024-02-24T23:27:07.550Z,11.57
2024-02-24T23:29:34.980Z,11.84
2024-02-24T23:32:02.569Z,11.69
2024-02-24T23:34:29.799Z,11.89
2024-02-24T23:36:56.991Z,11.81
2024-02-24T23:39:24.526Z,11.92
2024-02-24T23:41:54.279Z,11.71
2024-02-24T23:44:22.061Z,11.87
2024-02-24T23:46:49.665Z,11.92
2024-02-24T23:49:17.321Z,12.02
2024-02-24T23:51:44.663Z,11.81
2024-02-24T23:54:12.105Z,11.79
2024-02-24T23:56:39.977Z,11.79
2024-02-24T23:59:08.787Z,11.82
